createdAt,value
2022-12-07T00:04:25.842Z,15.533938
2022-12-07T00:09:27.848Z,15.45803
2022-12-07T00:14:29.443Z,15.179366
2022-12-07T00:19:31.073Z,15.256156
2022-12-07T00:24:33.200Z,15.230998
2022-12-07T00:29:34.865Z,15.259426
2022-12-07T00:34:36.463Z,15.610552
2022-12-07T00:39:38.038Z,15.540384
2022-12-07T00:44:39.947Z,15.328102
2022-12-07T00:49:41.662Z,15.281762
2022-12-07T00:54:43.723Z,15.136554
2022-12-07T00:59:45.522Z,14.961778
2022-12-07T01:04:47.080Z,15.049342
2022-12-07T01:09:48.788Z,14.938384
2022-12-07T01:14:50.244Z,15.50376
2022-12-07T01:19:51.831Z,15.128792
2022-12-07T01:24:53.493Z,15.250416
2022-12-07T01:29:55.050Z,15.407104
2022-12-07T01:34:56.564Z,14.994088
2022-12-07T01:39:58.207Z,13.94493
2022-12-07T01:44:59.939Z,14.796094
2022-12-07T01:50:01.642Z,14.229864
2022-12-07T01:55:03.658Z,14.227476
2022-12-07T02:00:05.446Z,14.124918
2022-12-07T02:05:07.195Z,14.474184
2022-12-07T02:10:08.990Z,14.219972
2022-12-07T02:15:10.483Z,14.306302
2022-12-07T02:20:11.980Z,14.373824
2022-12-07T02:25:13.833Z,14.152178
2022-12-07T02:30:15.406Z,14.584966
2022-12-07T02:35:16.876Z,14.379468
2022-12-07T02:40:18.709Z,14.093748
2022-12-07T02:45:20.486Z,13.303756
2022-12-07T02:50:21.971Z,14.095784
2022-12-07T02:55:23.863Z,13.981216
2022-12-07T03:00:25.482Z,14.158624
2022-12-07T03:05:27.136Z,13.25785
2022-12-07T03:10:28.661Z,13.708292
2022-12-07T03:15:30.593Z,14.096842
2022-12-07T03:20:32.196Z,13.776424
2022-12-07T03:25:33.803Z,13.310812
2022-12-07T03:30:35.229Z,13.28389
2022-12-07T03:35:36.754Z,13.006298
2022-12-07T03:40:38.275Z,13.827622
2022-12-07T03:45:39.812Z,14.083068
2022-12-07T03:50:41.516Z,14.063026
2022-12-07T03:55:43.251Z,13.223696
2022-12-07T04:00:44.967Z,14.398004
2022-12-07T04:05:46.726Z,14.270722
2022-12-07T04:10:48.373Z,14.653818
2022-12-07T04:15:50.036Z,14.3499
2022-12-07T04:20:51.550Z,14.359874
2022-12-07T04:25:53.188Z,15.082086
2022-12-07T04:30:54.844Z,15.12905
2022-12-07T04:35:56.282Z,15.189164
2022-12-07T04:40:57.770Z,15.654436
2022-12-07T04:45:59.257Z,16.7744
2022-12-07T04:51:00.820Z,16.999668
2022-12-07T04:56:02.504Z,17.329802
2022-12-07T05:01:04.069Z,17.28258
2022-12-07T05:06:09.089Z,17.866844
2022-12-07T05:11:13.299Z,19.51457
2022-12-07T05:16:14.945Z,19.453724
2022-12-07T05:21:16.437Z,19.940478
2022-12-07T05:26:18.782Z,19.032226
2022-12-07T05:31:20.711Z,19.502018
2022-12-07T05:36:22.463Z,20.531664
2022-12-07T05:41:24.053Z,20.38708
2022-12-07T05:46:25.557Z,20.92202
2022-12-07T05:51:26.995Z,19.829954
2022-12-07T05:56:28.882Z,20.070936
2022-12-07T06:01:30.442Z,20.222956
2022-12-07T06:06:32.039Z,20.6306
2022-12-07T06:11:33.814Z,20.260096
2022-12-07T06:16:35.571Z,21.34398
2022-12-07T06:21:37.202Z,22.463064
2022-12-07T06:26:39.648Z,21.808304
2022-12-07T06:31:41.435Z,21.88428
2022-12-07T06:36:43.098Z,22.284556
2022-12-07T06:41:45.013Z,23.614132
2022-12-07T06:46:46.448Z,23.69844
2022-12-07T06:51:48.152Z,23.765772
2022-12-07T06:56:49.797Z,23.660716
2022-12-07T07:01:51.298Z,23.848058
2022-12-07T07:06:58.175Z,23.828396
2022-12-07T07:12:03.735Z,23.813388
2022-12-07T07:17:05.229Z,23.83723
2022-12-07T07:22:07.180Z,23.895728
2022-12-07T07:27:08.974Z,23.537572
2022-12-07T07:32:10.395Z,23.978082
2022-12-07T07:37:11.879Z,22.521576
2022-12-07T07:42:13.540Z,23.018318
2022-12-07T07:47:15.185Z,24.56684
2022-12-07T07:52:16.786Z,24.383664
2022-12-07T07:57:18.856Z,24.79945
2022-12-07T08:02:20.352Z,24.830836
2022-12-07T08:07:22.039Z,24.340254
2022-12-07T08:12:23.529Z,23.984012
2022-12-07T08:17:25.076Z,24.992532
2022-12-07T08:22:26.811Z,25.626816
2022-12-07T08:27:29.185Z,25.676888
2022-12-07T08:32:30.729Z,25.719266
2022-12-07T08:37:32.231Z,25.846874
2022-12-07T08:42:33.871Z,26.98166
2022-12-07T08:47:35.449Z,27.040336
2022-12-07T08:52:36.956Z,26.667822
2022-12-07T08:57:38.677Z,26.216444
2022-12-07T09:02:40.178Z,27.092864
2022-12-07T09:07:41.805Z,26.370526
2022-12-07T09:12:43.441Z,27.13014
2022-12-07T09:17:45.073Z,26.690064
2022-12-07T09:22:46.777Z,27.19659
2022-12-07T09:27:48.772Z,27.191732
2022-12-07T09:32:50.377Z,25.84815
2022-12-07T09:37:51.977Z,26.694922
2022-12-07T09:42:53.651Z,27.56757
2022-12-07T09:47:55.189Z,27.586554
2022-12-07T09:52:56.811Z,27.90681
2022-12-07T09:57:58.476Z,28.540634
2022-12-07T10:02:59.902Z,27.543538
2022-12-07T10:08:01.490Z,28.207608
2022-12-07T10:13:03.349Z,27.041856
2022-12-07T10:18:04.796Z,26.412456
2022-12-07T10:23:06.323Z,26.453788
2022-12-07T10:28:08.117Z,26.29288
2022-12-07T10:33:09.575Z,25.716226
2022-12-07T10:38:11.180Z,26.223988
2022-12-07T10:43:12.748Z,25.646398
2022-12-07T10:48:14.320Z,25.386892
2022-12-07T10:53:15.751Z,25.256936
2022-12-07T10:58:18.470Z,24.376594
2022-12-07T11:03:20.177Z,22.093876
2022-12-07T11:08:21.718Z,20.032616
2022-12-07T11:13:28.101Z,18.858658
2022-12-07T11:18:30.094Z,18.670896
2022-12-07T11:23:31.694Z,18.247892
2022-12-07T11:28:33.322Z,18.33334
2022-12-07T11:33:34.886Z,18.335212
2022-12-07T11:38:36.374Z,19.431796
2022-12-07T11:43:38.039Z,18.804366
2022-12-07T11:48:39.634Z,18.56295
2022-12-07T11:53:41.200Z,19.216786
2022-12-07T11:58:42.911Z,18.87984
2022-12-07T12:03:48.244Z,18.406086
2022-12-07T12:14:33.846Z,18.471844
2022-12-07T12:19:36.115Z,19.15537
2022-12-07T12:24:37.609Z,18.907386
2022-12-07T12:29:39.588Z,18.477584
2022-12-07T12:34:44.252Z,18.966278
2022-12-07T12:39:51.408Z,18.813634
2022-12-07T12:44:52.974Z,18.557034
2022-12-07T12:49:54.465Z,18.425246
2022-12-07T12:54:56.036Z,18.33874
2022-12-07T12:59:58.135Z,18.541768
2022-12-07T13:04:59.870Z,18.880464
2022-12-07T13:10:01.585Z,18.622792
2022-12-07T13:15:03.276Z,18.350138
2022-12-07T13:20:05.107Z,18.956236
2022-12-07T13:25:06.579Z,19.453032
2022-12-07T13:30:08.267Z,19.4374
2022-12-07T13:35:09.938Z,20.744218
2022-12-07T13:40:11.377Z,21.947786
2022-12-07T13:45:13.024Z,21.761272
2022-12-07T13:50:14.750Z,21.16611
2022-12-07T13:55:16.416Z,21.823692
2022-12-07T14:00:18.130Z,21.146868
2022-12-07T14:05:19.582Z,21.976662
2022-12-07T14:10:21.092Z,21.631818
2022-12-07T14:15:22.636Z,22.956278
2022-12-07T14:20:24.121Z,24.276898
2022-12-07T14:25:25.815Z,23.315506
2022-12-07T14:30:27.758Z,23.366324
2022-12-07T14:35:29.651Z,22.680666
2022-12-07T14:40:31.294Z,23.427184
2022-12-07T14:45:33.008Z,23.244984
2022-12-07T14:50:34.558Z,22.449372
2022-12-07T14:55:36.274Z,22.736084
2022-12-07T15:00:37.984Z,22.518034
2022-12-07T15:05:39.533Z,22.659036
2022-12-07T15:10:41.057Z,22.874562
2022-12-07T15:15:42.711Z,23.777198
2022-12-07T15:20:44.232Z,22.574728
2022-12-07T15:25:45.731Z,22.477122
2022-12-07T15:30:47.739Z,22.945436
2022-12-07T15:35:49.351Z,22.993744
2022-12-07T15:40:51.221Z,22.860694
2022-12-07T15:45:52.673Z,22.71037
2022-12-07T15:50:54.118Z,22.94701
2022-12-07T15:55:55.654Z,23.076274
2022-12-07T16:00:57.447Z,22.538484
2022-12-07T16:05:58.996Z,22.446862
2022-12-07T16:11:00.432Z,22.300324
2022-12-07T16:16:02.051Z,22.338536
2022-12-07T16:21:03.794Z,21.874456
2022-12-07T16:26:05.322Z,21.858118
2022-12-07T16:31:07.012Z,21.761896
2022-12-07T16:36:08.737Z,21.657546
2022-12-07T16:41:10.457Z,21.442848
2022-12-07T16:46:12.159Z,20.59806
2022-12-07T16:51:13.899Z,20.53123
2022-12-07T16:56:15.385Z,19.840674
2022-12-07T17:01:17.105Z,20.163114
2022-12-07T17:06:18.696Z,19.549878
2022-12-07T17:11:20.322Z,19.655802
2022-12-07T17:16:22.815Z,19.171368
2022-12-07T17:21:25.118Z,18.86745
2022-12-07T17:26:30.672Z,19.45215
2022-12-07T17:31:36.769Z,18.350612
2022-12-07T17:36:38.284Z,18.280078
2022-12-07T17:41:39.803Z,18.580196
2022-12-07T17:46:41.444Z,17.462416
2022-12-07T17:51:43.128Z,18.797974
2022-12-07T17:56:44.719Z,18.632642
2022-12-07T18:01:46.457Z,19.551126
2022-12-07T18:06:51.998Z,19.138082
2022-12-07T18:11:54.424Z,19.312424
2022-12-07T18:16:56.027Z,18.441352
2022-12-07T18:21:57.655Z,18.433848
2022-12-07T18:26:59.115Z,18.498358
2022-12-07T18:32:00.940Z,17.766402
2022-12-07T18:37:02.538Z,17.422142
2022-12-07T18:42:04.017Z,17.86854
2022-12-07T18:47:05.823Z,17.35215
2022-12-07T18:52:07.425Z,17.556752
2022-12-07T18:57:08.872Z,17.882042
2022-12-07T19:02:10.636Z,17.2562
2022-12-07T19:07:12.444Z,17.325744
2022-12-07T19:12:14.097Z,16.298094
2022-12-07T19:17:15.683Z,17.531242
2022-12-07T19:22:17.226Z,17.274546
2022-12-07T19:27:18.914Z,17.452416
2022-12-07T19:32:20.818Z,17.103298
2022-12-07T19:37:22.549Z,16.668746
2022-12-07T19:42:24.229Z,16.883512
2022-12-07T19:47:25.807Z,17.018638
2022-12-07T19:52:29.976Z,16.936556
2022-12-07T19:57:33.872Z,17.017688
2022-12-07T20:02:38.817Z,16.966666
2022-12-07T20:07:40.354Z,17.33527
2022-12-07T20:12:41.964Z,16.31743
2022-12-07T20:17:43.522Z,15.935664
2022-12-07T20:22:45.110Z,16.925252
2022-12-07T20:27:46.661Z,16.111852
2022-12-07T20:32:48.486Z,16.273112
2022-12-07T20:37:50.049Z,16.400138
2022-12-07T20:42:51.537Z,16.464932
2022-12-07T20:47:52.996Z,16.11846
2022-12-07T20:53:00.241Z,15.844206
2022-12-07T20:58:02.152Z,16.613044
2022-12-07T21:03:04.084Z,15.564836
2022-12-07T21:08:05.692Z,16.177786
2022-12-07T21:13:08.820Z,16.458744
2022-12-07T21:18:10.483Z,16.270114
2022-12-07T21:23:12.032Z,15.744374
2022-12-07T21:28:13.463Z,15.864248
2022-12-07T21:33:15.075Z,15.919246
2022-12-07T21:38:16.668Z,16.10443
2022-12-07T21:43:18.123Z,15.484518
2022-12-07T21:48:19.574Z,15.396058
2022-12-07T21:53:21.154Z,15.801666
2022-12-07T21:58:22.945Z,15.905554
2022-12-07T22:03:24.746Z,16.043434
2022-12-07T22:08:26.341Z,16.204532
2022-12-07T22:13:27.844Z,16.06444
2022-12-07T22:18:29.455Z,16.23984
2022-12-07T22:23:31.047Z,16.114498
2022-12-07T22:28:32.607Z,15.92869
2022-12-07T22:33:34.357Z,15.830528
2022-12-07T22:38:35.918Z,16.36297
2022-12-07T22:43:37.452Z,16.382918
2022-12-07T22:48:39.125Z,14.863982
2022-12-07T22:53:41.661Z,14.199576
2022-12-07T22:58:43.115Z,15.89364
2022-12-07T23:03:45.083Z,15.57234
2022-12-07T23:08:46.735Z,15.579138
2022-12-07T23:13:48.282Z,15.46457
2022-12-07T23:18:49.972Z,15.28917
2022-12-07T23:23:51.608Z,15.898932
2022-12-07T23:28:53.070Z,15.117842
2022-12-07T23:33:54.803Z,15.452114
2022-12-07T23:38:56.223Z,15.688672
2022-12-07T23:43:57.793Z,15.457582
2022-12-07T23:48:59.455Z,14.7164
2022-12-07T23:54:01.034Z,14.741368
2022-12-07T23:59:02.649Z,14.702274
